T/t Fugitive — WDJ5844 — position and weather

sailwx.info

Track history (hours):
 
Tides and Currents Weather Stations Pressure Air Temp Water Temp Dewpoint Dewpoint Depression Visibility Wind Speed Wind Dir Waves Ship Positions

T/t Fugitive

Owner: SCR Investments Inc., Wilmington, DE. More information available from US FCC via Universal Licensing System.

Last reported at 2017-Oct-17 11:38 UTC. Time now 2017-Oct-18 05:27 UTC.
Position N 25°32' W 080°08'.

Type: Pleasure craft. MMSI: 367791860.

Date/timePositionNaut miles runAvg speedWind from/ knotsBaromVisibWave heightAir tempDewpointWater temp
2017-Oct-17 11:38N 25°32' W 080°08'426.7
2017-Oct-17 11:29N 25°37' W 080°07'1020.2
2017-Oct-17 11:00N 25°46' W 080°08'0 0.0
2017-Oct-17 00:48N 25°46' W 080°08'0 0.0
2017-Oct-17 00:30N 25°46' W 080°08'0 0.0
2017-Oct-16 23:57N 25°46' W 080°08'0 0.0
2017-Oct-15 18:29N 25°46' W 080°08'0 0.1
2017-Oct-15 18:00N 25°46' W 080°08'2 4.4
2017-Oct-15 17:30N 25°46' W 080°06'713.9
2017-Oct-15 17:00N 25°52' W 080°04'714.6
2017-Oct-15 16:30N 25°59' W 080°03'713.7
2017-Oct-15 16:00N 26°06' W 080°02'714.3
2017-Oct-15 15:30N 26°13' W 080°00'  
Track history (hours):
 
Tides and Currents Weather Stations Pressure Air Temp Water Temp Dewpoint Dewpoint Depression Visibility Wind Speed Wind Dir Waves Ship Positions

T/t Fugitive

Owner: SCR Investments Inc., Wilmington, DE. More information available from US FCC via Universal Licensing System.

Last reported at 2017-Oct-17 11:38 UTC. Time now 2017-Oct-18 05:27 UTC.
Position N 25°32' W 080°08'.

Type: Pleasure craft. MMSI: 367791860.

Date/timePositionNaut miles runAvg speedWind from/ knotsBaromVisibWave heightAir tempDewpointWater temp
2017-Oct-17 11:38N 25°32' W 080°08'426.7
2017-Oct-17 11:29N 25°37' W 080°07'1020.2
2017-Oct-17 11:00N 25°46' W 080°08'0 0.0
2017-Oct-17 00:48N 25°46' W 080°08'0 0.0
2017-Oct-17 00:30N 25°46' W 080°08'0 0.0
2017-Oct-16 23:57N 25°46' W 080°08'0 0.0
2017-Oct-15 18:29N 25°46' W 080°08'0 0.1
2017-Oct-15 18:00N 25°46' W 080°08'2 4.4
2017-Oct-15 17:30N 25°46' W 080°06'713.9
2017-Oct-15 17:00N 25°52' W 080°04'714.6
2017-Oct-15 16:30N 25°59' W 080°03'713.7
2017-Oct-15 16:00N 26°06' W 080°02'714.3
2017-Oct-15 15:30N 26°13' W 080°00'  

Dump ship's entire track history